Time;durP1;ratioP1;P1;durP2;ratioP2;P2;SDS_P1;SDS_P2;PMS_P1;PMS_P2;Temp;Humidity;BMP_temperature;BMP_pressure;BME280_temperature;BME280_humidity;BME280_pressure;Samples;Min_cycle;Max_cycle;Signal;HPM_P1;HPM_P2
2022/10/24 00:00:25;;;;;;;;;;;;;;;14.92;73.62;100853.44;5058967;28;20365;-54
2022/10/24 00:02:50;;;;;;;;;;;;;;;14.91;73.58;100849.91;5053949;28;20372;-54
2022/10/24 00:05:15;;;;;;;;;;;;;;;14.90;73.64;100850.88;5054166;28;22111;-54
2022/10/24 00:07:41;;;;;;;;;;;;;;;14.90;73.64;100842.91;5057416;28;19956;-53
2022/10/24 00:10:06;;;;;;;;;;;;;;;14.90;73.63;100847.38;5059883;28;20411;-56
2022/10/24 00:12:32;;;;;;;;;;;;;;;14.88;73.68;100850.16;5057282;28;19925;-56
2022/10/24 00:14:57;;;;;;;;;;;;;;;14.88;73.68;100854.59;5045662;28;19921;-55
2022/10/24 00:17:23;;;;;;;;;;;;;;;14.89;73.60;100862.44;5061428;28;19916;-55
2022/10/24 00:19:48;;;;;;;;;;;;;;;14.89;73.48;100857.16;5056761;28;20341;-55
2022/10/24 00:22:13;;;;;;;;;;;;;;;14.92;73.36;100861.38;5060409;28;19920;-57
2022/10/24 00:24:39;;;;;;;;;;;;;;;14.91;73.40;100855.22;5056488;28;19920;-56
2022/10/24 00:27:04;;;;;;;;;;;;;;;14.92;73.40;100854.25;5056392;28;19933;-53
2022/10/24 00:29:29;;;;;;;;;;;;;;;14.91;73.39;100859.69;5056192;28;19917;-55
2022/10/24 00:31:55;;;;;;;;;;;;;;;14.90;73.51;100842.91;5059162;28;19985;-54
2022/10/24 00:34:20;;;;;;;;;;;;;;;14.90;73.63;100845.56;5055830;28;20466;-54
2022/10/24 00:36:45;;;;;;;;;;;;;;;14.91;73.73;100841.13;5058174;28;19924;-56
2022/10/24 00:39:11;;;;;;;;;;;;;;;14.90;73.88;100834.97;5057422;28;19923;-54
2022/10/24 00:41:41;;;;;;;;;;;;;;;14.91;73.87;100834.00;5056315;28;19920;-56
2022/10/24 00:44:26;;;;;;;;;;;;;;;14.91;74.05;100831.38;5055120;28;19926;-53
2022/10/24 00:47:07;;;;;;;;;;;;;;;14.88;74.19;100818.38;5058673;28;20384;-54
2022/10/24 00:49:47;;;;;;;;;;;;;;;14.88;74.17;100823.69;5058863;28;20883;-55
2022/10/24 00:52:13;;;;;;;;;;;;;;;14.87;74.38;100827.28;5057679;28;19916;-54
2022/10/24 00:54:40;;;;;;;;;;;;;;;14.85;74.46;100818.59;5057929;28;19920;-53
2022/10/24 00:57:14;;;;;;;;;;;;;;;14.85;74.49;100818.59;5058665;28;19916;-54
2022/10/24 00:59:41;;;;;;;;;;;;;;;14.84;74.50;100822.19;5059882;28;19965;-54
2022/10/24 01:02:07;;;;;;;;;;;;;;;14.84;74.61;100814.25;5058300;28;19916;-54
2022/10/24 01:04:32;;;;;;;;;;;;;;;14.83;74.55;100803.75;5055912;28;20335;-54
2022/10/24 01:07:30;;;;;;;;;;;;;;;14.80;75.13;100791.59;5057667;28;19927;-55
2022/10/24 01:09:58;;;;;;;;;;;;;;;14.78;75.11;100791.72;5013560;28;19917;-55
2022/10/24 01:12:23;;;;;;;;;;;;;;;14.74;75.47;100769.06;5056520;28;19955;-55
2022/10/24 01:15:02;;;;;;;;;;;;;;;14.74;75.66;100770.88;5055678;28;19948;-54
2022/10/24 01:17:35;;;;;;;;;;;;;;;14.74;75.73;100768.25;5055587;28;19978;-54
2022/10/24 01:20:06;;;;;;;;;;;;;;;14.72;75.99;100765.69;5058556;28;19919;-53
2022/10/24 01:22:50;;;;;;;;;;;;;;;14.72;75.86;100759.56;5056277;28;19919;-53
2022/10/24 01:25:16;;;;;;;;;;;;;;;14.72;76.10;100770.16;5058638;28;19931;-53
2022/10/24 01:27:44;;;;;;;;;;;;;;;14.72;76.34;100770.16;5057574;28;19963;-55
2022/10/24 01:30:15;;;;;;;;;;;;;;;14.69;76.29;100770.38;5058537;28;19916;-55
2022/10/24 01:32:45;;;;;;;;;;;;;;;14.66;76.55;100767.91;5056618;28;19973;-54
2022/10/24 01:35:34;;;;;;;;;;;;;;;14.64;76.47;100770.69;5055104;28;19920;-56
2022/10/24 01:38:07;;;;;;;;;;;;;;;14.61;76.86;100769.09;5049732;28;19920;-53
2022/10/24 01:40:44;;;;;;;;;;;;;;;14.58;76.88;100764.06;5058742;28;20281;-53
2022/10/24 01:43:10;;;;;;;;;;;;;;;14.57;76.78;100783.53;5048248;28;19923;-56
2022/10/24 01:45:38;;;;;;;;;;;;;;;14.57;76.69;100799.44;5056161;28;19917;-54
2022/10/24 01:48:06;;;;;;;;;;;;;;;14.54;76.87;100791.72;5054152;28;19935;-54
2022/10/24 01:50:33;;;;;;;;;;;;;;;14.55;76.94;100822.53;5053451;28;19923;-54
2022/10/24 01:52:59;;;;;;;;;;;;;;;14.54;76.79;100831.44;5054936;28;19916;-55
2022/10/24 01:55:24;;;;;;;;;;;;;;;14.53;76.91;100835.03;5056505;28;20328;-54
2022/10/24 01:57:50;;;;;;;;;;;;;;;14.53;76.70;100845.63;5056351;28;19973;-55
2022/10/24 02:00:20;;;;;;;;;;;;;;;14.51;77.21;100841.41;5053880;28;19924;-55
2022/10/24 02:02:49;;;;;;;;;;;;;;;14.50;77.05;100845.84;5056240;28;20019;-53
2022/10/24 02:05:17;;;;;;;;;;;;;;;14.48;77.19;100831.88;5052868;28;19912;-57
2022/10/24 02:07:45;;;;;;;;;;;;;;;14.47;77.22;100819.56;5056697;28;20388;-54
2022/10/24 02:10:24;;;;;;;;;;;;;;;14.45;77.26;100810.91;5055925;28;19920;-55
2022/10/24 02:12:52;;;;;;;;;;;;;;;14.42;77.03;100805.84;5059536;28;19916;-55
2022/10/24 02:15:21;;;;;;;;;;;;;;;14.39;77.24;100814.00;5054018;28;19919;-54
2022/10/24 02:17:47;;;;;;;;;;;;;;;14.38;77.29;100820.25;5053247;28;19932;-57
2022/10/24 02:20:12;;;;;;;;;;;;;;;14.35;77.37;100816.03;5054787;28;19995;-55
2022/10/24 02:22:59;;;;;;;;;;;;;;;14.33;77.46;100812.66;5056944;28;19913;-55
2022/10/24 02:25:36;;;;;;;;;;;;;;;14.30;77.51;100808.41;5051447;28;19927;-57
2022/10/24 02:28:05;;;;;;;;;;;;;;;14.29;77.82;100806.72;5056638;28;20015;-57
2022/10/24 02:30:32;;;;;;;;;;;;;;;14.29;78.05;100798.78;5057620;28;19916;-57
2022/10/24 02:32:58;;;;;;;;;;;;;;;14.30;78.03;100791.69;5054932;28;20366;-56
2022/10/24 02:35:27;;;;;;;;;;;;;;;14.31;78.18;100788.94;5050656;28;19923;-56
2022/10/24 02:37:57;;;;;;;;;;;;;;;14.32;78.38;100787.97;5054263;28;19947;-53
2022/10/24 02:40:23;;;;;;;;;;;;;;;14.35;78.05;100783.41;5057443;28;19920;-53
2022/10/24 02:42:51;;;;;;;;;;;;;;;14.38;78.35;100788.50;5059185;28;20534;-53
2022/10/24 02:45:19;;;;;;;;;;;;;;;14.39;78.12;100783.06;5052661;28;20047;-54
2022/10/24 02:47:45;;;;;;;;;;;;;;;14.42;78.47;100784.69;5052406;28;19924;-53
2022/10/24 02:50:11;;;;;;;;;;;;;;;14.44;78.15;100782.75;5056819;28;19938;-54
2022/10/24 02:52:38;;;;;;;;;;;;;;;14.44;78.40;100782.75;5055334;28;19920;-54
2022/10/24 02:55:03;;;;;;;;;;;;;;;14.46;78.23;100780.81;5055508;28;19928;-54
2022/10/24 02:57:29;;;;;;;;;;;;;;;14.47;78.20;100785.16;5053501;28;19916;-54
2022/10/24 02:59:54;;;;;;;;;;;;;;;14.50;78.02;100806.13;5054001;28;19916;-55
2022/10/24 03:02:19;;;;;;;;;;;;;;;14.53;77.96;100819.16;5056748;28;19916;-54
2022/10/24 03:04:45;;;;;;;;;;;;;;;14.52;78.33;100817.44;5056017;28;20015;-54
2022/10/24 03:07:10;;;;;;;;;;;;;;;14.51;78.31;100814.94;5055797;28;20357;-54
2022/10/24 03:09:35;;;;;;;;;;;;;;;14.52;78.53;100809.50;5057398;28;20448;-55
2022/10/24 03:12:01;;;;;;;;;;;;;;;14.51;78.79;100810.47;5061097;28;20552;-54
2022/10/24 03:14:26;;;;;;;;;;;;;;;14.53;78.62;100810.34;5058067;28;19919;-54
2022/10/24 03:16:52;;;;;;;;;;;;;;;14.53;78.55;100813.84;5062395;28;20432;-55
2022/10/24 03:19:17;;;;;;;;;;;;;;;14.55;78.54;100796.06;5068002;28;19916;-56
2022/10/24 03:21:43;;;;;;;;;;;;;;;14.53;78.91;100794.44;5068811;28;20424;-54
2022/10/24 03:24:08;;;;;;;;;;;;;;;14.52;79.19;100793.63;5070519;28;19924;-55
2022/10/24 03:26:34;;;;;;;;;;;;;;;14.51;78.92;100783.97;5064551;28;19923;-55
2022/10/24 03:28:59;;;;;;;;;;;;;;;14.51;79.23;100789.28;5070138;28;19913;-54
2022/10/24 03:31:25;;;;;;;;;;;;;;;14.50;79.29;100787.59;5063850;28;19922;-55
2022/10/24 03:33:50;;;;;;;;;;;;;;;14.49;79.39;100775.31;5060885;28;19975;-53
2022/10/24 03:36:15;;;;;;;;;;;;;;;14.50;79.31;100781.47;5058597;28;19920;-55
2022/10/24 03:38:41;;;;;;;;;;;;;;;14.49;79.26;100777.94;5060021;28;19916;-54
2022/10/24 03:41:06;;;;;;;;;;;;;;;14.52;79.28;100771.59;5061086;28;19917;-54
2022/10/24 03:43:31;;;;;;;;;;;;;;;14.50;79.39;100774.34;5056316;28;19912;-54
2022/10/24 03:45:58;;;;;;;;;;;;;;;14.48;79.37;100758.59;5060315;28;19959;-54
2022/10/24 03:48:23;;;;;;;;;;;;;;;14.48;79.13;100763.03;5060933;28;19982;-54
2022/10/24 03:50:49;;;;;;;;;;;;;;;14.48;79.20;100773.63;5056649;28;19920;-53
2022/10/24 03:53:14;;;;;;;;;;;;;;;14.46;79.12;100778.19;5059477;28;19924;-54
2022/10/24 03:55:39;;;;;;;;;;;;;;;14.48;79.02;100773.63;5058962;28;19916;-59
2022/10/24 03:58:04;;;;;;;;;;;;;;;14.49;78.79;100780.59;5060307;28;19916;-54
2022/10/24 04:00:33;;;;;;;;;;;;;;;14.52;78.92;100790.16;5058620;28;19916;-54
2022/10/24 04:02:58;;;;;;;;;;;;;;;14.47;79.37;100783.38;5057938;28;19928;-56
2022/10/24 04:05:23;;;;;;;;;;;;;;;14.47;79.50;100790.47;5053715;28;20535;-56
2022/10/24 04:07:49;;;;;;;;;;;;;;;14.42;79.59;100782.03;5060430;28;20045;-53
2022/10/24 04:10:14;;;;;;;;;;;;;;;14.44;79.58;100786.25;5059794;28;19969;-54
2022/10/24 04:12:39;;;;;;;;;;;;;;;14.46;79.54;100791.41;5056397;28;19967;-60
2022/10/24 04:15:05;;;;;;;;;;;;;;;14.45;79.82;100785.28;5057246;28;19944;-54
2022/10/24 04:17:31;;;;;;;;;;;;;;;14.46;79.90;100780.81;5061816;28;19912;-55
2022/10/24 04:19:56;;;;;;;;;;;;;;;14.45;79.86;100776.47;5058235;28;19916;-56
2022/10/24 04:22:22;;;;;;;;;;;;;;;14.45;79.91;100768.53;5058990;28;20417;-56
2022/10/24 04:24:47;;;;;;;;;;;;;;;14.44;79.99;100767.72;5060410;28;19927;-54
2022/10/24 04:27:12;;;;;;;;;;;;;;;14.44;79.97;100766.88;5057389;28;20023;-54
2022/10/24 04:29:38;;;;;;;;;;;;;;;14.44;79.91;100767.72;5059532;28;20377;-54
2022/10/24 04:32:03;;;;;;;;;;;;;;;14.44;79.91;100761.59;5058239;28;19971;-54
2022/10/24 04:34:28;;;;;;;;;;;;;;;14.45;79.90;100764.09;5058951;28;19951;-57
2022/10/24 04:36:54;;;;;;;;;;;;;;;14.44;79.74;100767.72;5060218;28;19972;-54
2022/10/24 04:39:19;;;;;;;;;;;;;;;14.45;79.83;100774.69;5058592;28;20007;-61
2022/10/24 04:41:44;;;;;;;;;;;;;;;14.46;79.89;100780.81;5059437;28;19916;-58
2022/10/24 04:44:10;;;;;;;;;;;;;;;14.47;79.88;100779.88;5056214;28;19916;-53
2022/10/24 04:46:35;;;;;;;;;;;;;;;14.46;79.64;100781.69;5059971;28;19924;-53
2022/10/24 04:49:00;;;;;;;;;;;;;;;14.47;79.48;100790.47;5055435;28;19970;-54
2022/10/24 04:51:26;;;;;;;;;;;;;;;14.45;79.49;100780.00;5057731;28;20392;-60
2022/10/24 04:53:51;;;;;;;;;;;;;;;14.44;79.41;100788.06;5056623;28;20035;-55
2022/10/24 04:56:17;;;;;;;;;;;;;;;14.41;79.21;100782.97;5059502;28;19963;-53
2022/10/24 04:58:42;;;;;;;;;;;;;;;14.37;79.02;100781.50;5056617;28;19919;-54
2022/10/24 05:01:08;;;;;;;;;;;;;;;14.31;78.91;100777.50;5058500;28;19924;-55
2022/10/24 05:03:33;;;;;;;;;;;;;;;14.24;78.98;100777.13;5052800;28;19931;-54
2022/10/24 05:05:58;;;;;;;;;;;;;;;14.18;79.06;100772.25;5059344;28;19913;-56
2022/10/24 05:08:24;;;;;;;;;;;;;;;14.14;79.11;100760.22;5059738;28;20344;-54
2022/10/24 05:10:49;;;;;;;;;;;;;;;14.07;78.98;100762.44;5056056;28;19938;-54
2022/10/24 05:13:14;;;;;;;;;;;;;;;14.01;79.02;100770.84;5057267;28;20439;-56
2022/10/24 05:15:40;;;;;;;;;;;;;;;13.98;79.01;100771.06;5060071;28;19912;-55
2022/10/24 05:18:06;;;;;;;;;;;;;;;13.95;79.03;100766.84;5058544;28;20462;-56
2022/10/24 05:20:31;;;;;;;;;;;;;;;13.93;78.83;100773.19;5057829;28;19917;-53
2022/10/24 05:22:56;;;;;;;;;;;;;;;13.88;78.98;100770.88;5058191;28;19921;-57
2022/10/24 05:25:22;;;;;;;;;;;;;;;13.84;78.85;100770.25;5057886;28;19916;-54
2022/10/24 05:27:47;;;;;;;;;;;;;;;13.80;78.82;100768.75;5058282;28;19916;-54
2022/10/24 05:30:13;;;;;;;;;;;;;;;13.79;78.81;100782.09;5055331;28;19920;-54
2022/10/24 05:32:38;;;;;;;;;;;;;;;13.75;78.77;100780.63;5052681;28;19969;-55
2022/10/24 05:35:03;;;;;;;;;;;;;;;13.71;78.87;100775.53;5054795;28;19916;-54
2022/10/24 05:37:29;;;;;;;;;;;;;;;13.67;78.80;100778.53;5053413;28;19920;-55
2022/10/24 05:39:54;;;;;;;;;;;;;;;13.63;78.76;100787.63;5042769;28;19921;-54
2022/10/24 05:42:19;;;;;;;;;;;;;;;13.60;78.83;100793.97;5048228;28;19921;-54
2022/10/24 05:44:45;;;;;;;;;;;;;;;13.59;78.93;100794.09;5056577;28;19916;-55
2022/10/24 05:47:10;;;;;;;;;;;;;;;13.56;78.94;100788.06;5055062;28;21164;-53
2022/10/24 05:49:37;;;;;;;;;;;;;;;13.53;78.91;100780.34;5057217;28;20284;-55
2022/10/24 05:52:03;;;;;;;;;;;;;;;13.53;78.97;100790.09;5055551;28;22027;-55
2022/10/24 05:54:28;;;;;;;;;;;;;;;13.52;78.77;100775.16;5057919;28;19974;-55
2022/10/24 05:56:53;;;;;;;;;;;;;;;13.51;78.62;100784.88;5051287;28;19933;-54
2022/10/24 05:59:19;;;;;;;;;;;;;;;13.48;78.81;100782.44;5054170;28;19973;-56
2022/10/24 06:01:44;;;;;;;;;;;;;;;13.47;78.86;100785.22;5048925;28;19928;-55
2022/10/24 06:04:09;;;;;;;;;;;;;;;13.47;78.86;100782.56;5054126;28;20413;-54
2022/10/24 06:06:38;;;;;;;;;;;;;;;13.47;78.70;100786.03;5058572;28;19964;-54
2022/10/24 06:09:04;;;;;;;;;;;;;;;13.46;78.83;100786.16;5057072;28;20401;-55
2022/10/24 06:11:29;;;;;;;;;;;;;;;13.46;78.72;100781.69;5053943;28;20015;-54
2022/10/24 06:13:54;;;;;;;;;;;;;;;13.46;78.60;100791.44;5052734;28;20368;-56
2022/10/24 06:16:20;;;;;;;;;;;;;;;13.46;78.81;100786.16;5053702;28;19932;-54
2022/10/24 06:18:45;;;;;;;;;;;;;;;13.45;78.67;100781.81;5053634;28;19932;-54
2022/10/24 06:21:12;;;;;;;;;;;;;;;13.46;78.64;100794.09;5054256;28;19928;-56
2022/10/24 06:23:37;;;;;;;;;;;;;;;13.47;78.76;100801.06;5062352;28;20285;-54
2022/10/24 06:26:06;;;;;;;;;;;;;;;13.48;78.71;100805.41;5057798;28;19987;-56
2022/10/24 06:28:31;;;;;;;;;;;;;;;13.48;78.72;100800.94;5061154;28;19927;-53
2022/10/24 06:30:56;;;;;;;;;;;;;;;13.49;78.79;100801.81;5060562;28;19929;-54
2022/10/24 06:33:22;;;;;;;;;;;;;;;13.49;78.93;100802.66;5059647;28;19997;-54
2022/10/24 06:35:47;;;;;;;;;;;;;;;13.48;79.16;100797.47;5054662;28;19925;-54
2022/10/24 06:38:12;;;;;;;;;;;;;;;13.47;79.27;100793.13;5060618;28;19966;-57
2022/10/24 06:40:40;;;;;;;;;;;;;;;13.48;79.47;100793.03;5059529;28;19932;-57
2022/10/24 06:43:06;;;;;;;;;;;;;;;13.50;79.51;100792.94;5061415;28;19917;-54
2022/10/24 06:45:31;;;;;;;;;;;;;;;13.52;79.60;100804.25;5059893;28;19932;-55
2022/10/24 06:47:56;;;;;;;;;;;;;;;13.53;79.63;100795.38;5063243;28;19929;-57
2022/10/24 06:50:22;;;;;;;;;;;;;;;13.54;79.74;100792.59;5063141;28;19929;-54
2022/10/24 06:52:47;;;;;;;;;;;;;;;13.58;79.73;100795.88;5065939;28;20000;-56
2022/10/24 06:55:12;;;;;;;;;;;;;;;13.60;79.79;100788.69;5062877;28;20278;-56
2022/10/24 06:57:38;;;;;;;;;;;;;;;13.65;79.69;100785.72;5063965;28;19927;-56
2022/10/24 07:00:03;;;;;;;;;;;;;;;13.68;79.52;100786.38;5063197;28;19928;-59
2022/10/24 07:02:29;;;;;;;;;;;;;;;13.74;79.40;100776.28;5063691;28;20080;-56
2022/10/24 07:04:55;;;;;;;;;;;;;;;13.76;79.66;100777.03;5062932;28;19929;-54
2022/10/24 07:07:21;;;;;;;;;;;;;;;13.76;79.52;100775.25;5065053;28;19939;-54
2022/10/24 07:09:54;;;;;;;;;;;;;;;13.78;79.75;100775.97;5066840;28;19928;-54
2022/10/24 07:12:23;;;;;;;;;;;;;;;13.81;79.65;100780.22;5062519;28;19925;-56
2022/10/24 07:14:48;;;;;;;;;;;;;;;13.83;79.82;100778.31;5065060;28;19943;-62
2022/10/24 07:17:14;;;;;;;;;;;;;;;13.87;79.71;100785.91;5062977;28;20385;-55
2022/10/24 07:19:40;;;;;;;;;;;;;;;13.91;79.61;100778.59;5055996;28;19920;-56
2022/10/24 07:22:05;;;;;;;;;;;;;;;13.93;79.66;100776.69;5052269;28;19963;-56
2022/10/24 07:24:30;;;;;;;;;;;;;;;13.95;79.64;100782.72;5052928;28;21447;-55
2022/10/24 07:26:56;;;;;;;;;;;;;;;13.95;79.71;100780.06;5052168;28;19924;-58
2022/10/24 07:29:21;;;;;;;;;;;;;;;13.99;79.75;100788.63;5059099;28;19924;-54
2022/10/24 07:31:47;;;;;;;;;;;;;;;14.01;79.71;100786.72;5055336;28;19927;-54
2022/10/24 07:34:13;;;;;;;;;;;;;;;14.06;79.88;100789.88;5049433;28;19924;-59
2022/10/24 07:36:38;;;;;;;;;;;;;;;14.10;79.74;100796.63;5052568;28;19978;-57
2022/10/24 07:39:03;;;;;;;;;;;;;;;14.14;79.86;100791.97;5057911;28;19934;-56
2022/10/24 07:41:30;;;;;;;;;;;;;;;14.18;79.67;100794.28;5055930;28;19963;-54
2022/10/24 07:43:56;;;;;;;;;;;;;;;14.24;79.64;100790.34;5056495;28;19930;-54
2022/10/24 07:46:21;;;;;;;;;;;;;;;14.28;79.54;100783.03;5046855;28;20308;-58
2022/10/24 07:48:50;;;;;;;;;;;;;;;14.31;79.47;100810.09;5045190;28;19926;-56
2022/10/24 07:51:16;;;;;;;;;;;;;;;14.35;79.35;100813.41;5051280;28;19963;-54
2022/10/24 07:53:41;;;;;;;;;;;;;;;14.40;79.47;100823.66;5048788;28;20114;-56
2022/10/24 07:56:08;;;;;;;;;;;;;;;14.46;79.30;100813.47;5051615;28;19920;-54
2022/10/24 07:58:34;;;;;;;;;;;;;;;14.51;79.22;100805.16;5047514;28;20761;-60
2022/10/24 08:01:08;;;;;;;;;;;;;;;14.55;79.28;100798.69;5055724;28;19932;-57
2022/10/24 08:03:33;;;;;;;;;;;;;;;14.62;79.09;100818.44;5058389;28;19921;-58
2022/10/24 08:05:58;;;;;;;;;;;;;;;14.70;78.99;100825.88;5048274;28;19933;-54
2022/10/24 08:08:24;;;;;;;;;;;;;;;14.75;78.77;100823.72;5046901;28;19954;-55
2022/10/24 08:10:49;;;;;;;;;;;;;;;14.79;78.71;100816.41;5051076;28;20010;-55
2022/10/24 08:13:14;;;;;;;;;;;;;;;14.83;78.57;100815.22;5054329;28;19952;-59
2022/10/24 08:15:40;;;;;;;;;;;;;;;14.86;78.66;100815.00;5048151;28;19929;-54
2022/10/24 08:18:05;;;;;;;;;;;;;;;14.91;78.62;100818.13;5055305;28;19924;-54
2022/10/24 08:20:30;;;;;;;;;;;;;;;14.98;78.58;100815.84;5053516;28;20436;-54
2022/10/24 08:22:56;;;;;;;;;;;;;;;15.07;78.35;100811.66;5052822;28;19928;-56
2022/10/24 08:25:21;;;;;;;;;;;;;;;15.13;78.36;100813.00;5048559;28;20913;-55
2022/10/24 08:27:46;;;;;;;;;;;;;;;15.18;78.35;100798.47;5054199;28;19928;-59
2022/10/24 08:30:12;;;;;;;;;;;;;;;15.26;78.29;100791.72;5047746;28;19928;-56
2022/10/24 08:32:37;;;;;;;;;;;;;;;15.32;78.11;100788.59;5047341;28;19970;-59
2022/10/24 08:35:03;;;;;;;;;;;;;;;15.37;78.02;100789.94;5045254;28;19926;-55
2022/10/24 08:37:29;;;;;;;;;;;;;;;15.42;77.93;100784.28;5052440;28;21204;-54
2022/10/24 08:39:54;;;;;;;;;;;;;;;15.48;77.74;100777.63;5058712;28;19928;-60
2022/10/24 08:42:21;;;;;;;;;;;;;;;15.53;77.68;100783.44;5062225;28;19928;-54
2022/10/24 08:44:46;;;;;;;;;;;;;;;15.61;77.75;100782.84;5058737;28;19928;-55
2022/10/24 08:47:17;;;;;;;;;;;;;;;15.67;77.58;100775.25;5062355;28;19916;-54
2022/10/24 08:49:44;;;;;;;;;;;;;;;15.72;77.53;100774.88;5056671;28;19920;-60
2022/10/24 08:52:12;;;;;;;;;;;;;;;15.79;77.41;100775.22;5057352;28;19963;-55
2022/10/24 08:54:40;;;;;;;;;;;;;;;15.87;77.49;100779.97;5057423;28;19916;-56
2022/10/24 08:57:09;;;;;;;;;;;;;;;15.95;77.34;100780.19;5055370;28;20392;-54
2022/10/24 08:59:35;;;;;;;;;;;;;;;16.01;77.17;100785.00;5049762;28;19920;-55
2022/10/24 09:02:02;;;;;;;;;;;;;;;16.07;76.85;100783.66;5054797;28;19978;-55
2022/10/24 09:04:30;;;;;;;;;;;;;;;16.16;76.82;100804.19;5050092;28;19936;-57
2022/10/24 09:06:55;;;;;;;;;;;;;;;16.24;76.52;100808.88;5051444;28;19982;-55
2022/10/24 09:09:47;;;;;;;;;;;;;;;16.29;76.38;100801.34;5051088;28;19959;-54
2022/10/24 09:12:19;;;;;;;;;;;;;;;16.37;76.03;100795.41;5047399;28;20038;-55
2022/10/24 09:14:46;;;;;;;;;;;;;;;16.41;75.76;100788.91;5049674;28;19928;-57
2022/10/24 09:17:15;;;;;;;;;;;;;;;16.46;75.66;100789.38;5047079;28;20436;-57
2022/10/24 09:19:44;;;;;;;;;;;;;;;16.53;75.18;100785.22;5047132;28;19921;-55
2022/10/24 09:22:10;;;;;;;;;;;;;;;16.60;75.30;100786.41;5055634;28;20004;-56
2022/10/24 09:24:49;;;;;;;;;;;;;;;16.65;75.00;100783.38;5050534;28;21619;-58
2022/10/24 09:27:20;;;;;;;;;;;;;;;16.71;75.17;100782.84;5054664;28;19931;-56
2022/10/24 09:29:45;;;;;;;;;;;;;;;16.77;75.12;100779.69;5048202;28;19924;-56
2022/10/24 09:32:16;;;;;;;;;;;;;;;16.81;74.78;100784.75;5052140;28;19920;-55
2022/10/24 09:34:41;;;;;;;;;;;;;;;16.85;74.74;100784.38;5048472;28;19925;-59
2022/10/24 09:37:06;;;;;;;;;;;;;;;16.87;74.43;100766.47;5061438;28;19939;-55
2022/10/24 09:39:33;;;;;;;;;;;;;;;16.90;74.68;100783.97;5056063;28;19917;-55
2022/10/24 09:41:59;;;;;;;;;;;;;;;16.95;74.54;100779.16;5063384;28;19970;-58
2022/10/24 09:44:27;;;;;;;;;;;;;;;16.98;74.38;100781.56;5046041;28;20153;-58
2022/10/24 09:46:53;;;;;;;;;;;;;;;17.01;74.23;100783.09;5044236;28;20022;-55
2022/10/24 09:49:23;;;;;;;;;;;;;;;17.03;74.33;100776.69;5050092;28;19964;-56
2022/10/24 09:51:57;;;;;;;;;;;;;;;17.05;74.19;100768.59;5050323;28;20415;-55
2022/10/24 09:54:25;;;;;;;;;;;;;;;17.09;74.07;100775.34;5053563;28;20374;-57
2022/10/24 09:57:04;;;;;;;;;;;;;;;17.12;74.05;100758.28;5053262;28;19928;-54
2022/10/24 09:59:32;;;;;;;;;;;;;;;17.18;74.01;100765.72;5064991;28;20370;-54
2022/10/24 10:02:06;;;;;;;;;;;;;;;17.23;74.37;100775.97;5050049;28;19936;-55
2022/10/24 10:04:32;;;;;;;;;;;;;;;17.28;74.08;100768.44;5055301;28;19920;-54
2022/10/24 10:06:57;;;;;;;;;;;;;;;17.32;73.74;100765.38;5052846;28;20477;-55
2022/10/24 10:09:24;;;;;;;;;;;;;;;17.36;73.97;100761.47;5056720;28;20431;-54
2022/10/24 10:11:56;;;;;;;;;;;;;;;17.40;73.71;100750.56;5056241;28;21191;-56
2022/10/24 10:14:23;;;;;;;;;;;;;;;17.41;73.46;100761.06;5053812;28;19982;-56
2022/10/24 10:16:59;;;;;;;;;;;;;;;17.46;73.64;100766.03;5052887;28;19928;-54
2022/10/24 10:19:25;;;;;;;;;;;;;;;17.47;73.35;100771.19;5055273;28;19925;-55
2022/10/24 10:22:19;;;;;;;;;;;;;;;17.49;73.32;100769.25;5061661;28;19949;-56
2022/10/24 10:24:45;;;;;;;;;;;;;;;17.53;73.08;100777.78;5046283;28;19928;-55
2022/10/24 10:27:29;;;;;;;;;;;;;;;17.57;73.05;100767.72;5044226;28;19931;-54
2022/10/24 10:30:06;;;;;;;;;;;;;;;17.63;72.68;100772.53;5052542;28;19931;-58
2022/10/24 10:32:43;;;;;;;;;;;;;;;17.67;72.90;100766.78;5052224;28;19924;-55
2022/10/24 10:35:18;;;;;;;;;;;;;;;17.72;72.60;100754.91;5062071;28;20077;-55
2022/10/24 10:38:10;;;;;;;;;;;;;;;17.79;72.57;100750.72;5052994;28;20007;-56
2022/10/24 10:40:43;;;;;;;;;;;;;;;17.85;72.80;100742.19;5053709;28;19916;-54
2022/10/24 10:43:31;;;;;;;;;;;;;;;17.92;72.54;100745.97;5058827;28;19924;-58
2022/10/24 10:46:19;;;;;;;;;;;;;;;17.98;72.50;100745.47;5059034;28;20436;-61
2022/10/24 10:48:47;;;;;;;;;;;;;;;18.02;72.59;100761.19;5060657;28;19920;-55
2022/10/24 10:51:22;;;;;;;;;;;;;;;18.07;72.35;100753.63;5048794;28;19931;-55
2022/10/24 10:54:05;;;;;;;;;;;;;;;18.12;72.28;100735.41;5063154;28;19917;-55
2022/10/24 10:56:41;;;;;;;;;;;;;;;18.18;71.84;100740.19;5055094;28;19997;-56
2022/10/24 10:59:27;;;;;;;;;;;;;;;18.25;71.66;100745.81;5042830;28;19917;-57
2022/10/24 11:02:10;;;;;;;;;;;;;;;18.32;71.51;100751.41;5070014;28;19928;-55
2022/10/24 11:04:40;;;;;;;;;;;;;;;18.40;71.08;100751.53;5062454;28;19927;-55
2022/10/24 11:07:08;;;;;;;;;;;;;;;18.45;70.37;100757.31;5067455;28;19920;-56
2022/10/24 11:09:41;;;;;;;;;;;;;;;18.49;69.98;100755.19;5066976;28;19963;-56
2022/10/24 11:12:06;;;;;;;;;;;;;;;18.55;69.98;100744.81;5062768;28;20003;-56
2022/10/24 11:14:32;;;;;;;;;;;;;;;18.63;69.70;100753.94;5062970;28;20003;-54
2022/10/24 11:17:04;;;;;;;;;;;;;;;18.67;69.22;100748.19;5062723;28;20301;-56
2022/10/24 11:19:43;;;;;;;;;;;;;;;18.71;68.72;100746.94;5060471;28;19925;-58
2022/10/24 11:22:14;;;;;;;;;;;;;;;18.76;69.02;100749.16;5058364;28;19923;-54
2022/10/24 11:24:44;;;;;;;;;;;;;;;18.80;68.99;100744.38;5065571;28;21040;-55
2022/10/24 11:27:14;;;;;;;;;;;;;;;18.82;68.92;100732.59;5068396;28;19999;-56
2022/10/24 11:29:52;;;;;;;;;;;;;;;18.86;68.79;100736.66;5064428;28;19963;-55
2022/10/24 11:32:23;;;;;;;;;;;;;;;18.88;68.00;100739.19;5065819;28;19926;-55
2022/10/24 11:35:00;;;;;;;;;;;;;;;18.91;67.46;100735.38;5068570;28;19997;-55
2022/10/24 11:37:34;;;;;;;;;;;;;;;18.92;67.30;100737.06;5066383;28;19924;-56
2022/10/24 11:40:04;;;;;;;;;;;;;;;18.93;67.44;100734.25;5066152;28;20372;-54
2022/10/24 11:42:33;;;;;;;;;;;;;;;18.93;67.58;100726.25;5062230;28;20300;-57
2022/10/24 11:45:06;;;;;;;;;;;;;;;18.96;67.34;100734.00;5053265;28;19929;-57
2022/10/24 11:47:31;;;;;;;;;;;;;;;18.97;67.60;100722.34;5040743;28;19924;-55
2022/10/24 11:50:05;;;;;;;;;;;;;;;18.98;67.26;100731.22;5043677;28;20322;-54
2022/10/24 11:52:33;;;;;;;;;;;;;;;18.99;67.12;100725.72;5034546;28;19920;-54
2022/10/24 11:55:02;;;;;;;;;;;;;;;19.02;66.79;100727.25;5059664;28;19917;-56
2022/10/24 11:57:28;;;;;;;;;;;;;;;19.04;67.23;100714.63;5053791;28;20633;-55
2022/10/24 11:59:54;;;;;;;;;;;;;;;19.09;66.79;100724.84;5049468;28;20373;-54
2022/10/24 12:02:48;;;;;;;;;;;;;;;19.10;66.22;100715.84;5062653;28;19924;-55
2022/10/24 12:05:26;;;;;;;;;;;;;;;19.12;66.20;100717.41;5058399;28;19929;-55
2022/10/24 12:07:57;;;;;;;;;;;;;;;19.14;66.18;100714.59;5058700;28;19923;-54
2022/10/24 12:10:25;;;;;;;;;;;;;;;19.17;66.28;100711.63;5062693;28;20045;-55
2022/10/24 12:13:03;;;;;;;;;;;;;;;19.17;66.06;100709.78;5060587;28;20083;-57
2022/10/24 12:15:29;;;;;;;;;;;;;;;19.21;66.17;100709.50;5059394;28;19931;-54
2022/10/24 12:18:10;;;;;;;;;;;;;;;19.23;65.71;100707.53;5058072;28;19929;-55
2022/10/24 12:20:37;;;;;;;;;;;;;;;19.26;65.74;100707.25;5060935;28;19974;-54
2022/10/24 12:23:03;;;;;;;;;;;;;;;19.29;65.90;100710.47;5059896;28;20386;-54
2022/10/24 12:25:28;;;;;;;;;;;;;;;19.33;65.64;100713.66;5060056;28;19985;-58
2022/10/24 12:27:55;;;;;;;;;;;;;;;19.36;65.55;100716.06;5057171;28;19917;-55
2022/10/24 12:30:25;;;;;;;;;;;;;;;19.38;65.62;100716.75;5060985;28;20558;-55
2022/10/24 12:32:54;;;;;;;;;;;;;;;19.41;65.57;100711.13;5058511;28;19955;-55
2022/10/24 12:35:25;;;;;;;;;;;;;;;19.42;65.52;100702.13;5062346;28;19920;-54
2022/10/24 12:37:51;;;;;;;;;;;;;;;19.44;65.32;100704.66;5057421;28;20442;-56
2022/10/24 12:40:35;;;;;;;;;;;;;;;19.47;65.35;100702.50;5059419;28;20385;-56